Terminal Aerodrome Forecast
Issued by NWS Chicago, IL

Home | Current Version | Previous Version | Text Only | Print | Product List | Glossary Off
Versions: 1 2 3 4 5 6 7 8 9 10 11 12 13 14 15 16 17 18 19 20 21 22 23 24 25 26 27 28 29 30 31 32 33 34

000
FTUS43 KLOT 250300 AAA
TAFRFD
TAF AMD
KRFD 250317Z 2503/2524 15005KT P6SM SCT025
     FM250700 17004KT 3SM BR BCFG SCT020 SCT120 BKN250
     FM251000 18004KT 2SM BR BCFG VCSH SCT009 BKN020
     FM251400 20007KT P6SM SCT030 SCT110 BKN250
     FM252100 21009KT P6SM SCT035 BKN250 PROB30 2522/2524 TSRA
      BKN035CB=

USA.gov is the U.S. government's official web portal to all federal, state and local government web resources and services.